sensor_id;sensor_type;location;lat;lon;timestamp;P1;durP1;ratioP1;P2;durP2;ratioP2
70800;SDS011;59616;52.170;5.386;2022-07-04T00:01:41;5.90;;;1.60;;
70800;SDS011;59616;52.170;5.386;2022-07-04T00:04:07;12.13;;;1.90;;
70800;SDS011;59616;52.170;5.386;2022-07-04T00:06:34;5.28;;;1.60;;
70800;SDS011;59616;52.170;5.386;2022-07-04T00:09:01;10.55;;;1.85;;
70800;SDS011;59616;52.170;5.386;2022-07-04T00:11:28;4.25;;;1.52;;
70800;SDS011;59616;52.170;5.386;2022-07-04T00:13:54;7.45;;;1.80;;
70800;SDS011;59616;52.170;5.386;2022-07-04T00:16:21;5.97;;;1.85;;
70800;SDS011;59616;52.170;5.386;2022-07-04T00:18:48;9.93;;;1.73;;
70800;SDS011;59616;52.170;5.386;2022-07-04T00:21:15;3.85;;;1.38;;
70800;SDS011;59616;52.170;5.386;2022-07-04T00:23:41;5.32;;;1.73;;
70800;SDS011;59616;52.170;5.386;2022-07-04T00:26:08;6.63;;;1.70;;
70800;SDS011;59616;52.170;5.386;2022-07-04T00:28:35;5.22;;;1.52;;
70800;SDS011;59616;52.170;5.386;2022-07-04T00:31:01;4.88;;;1.30;;
70800;SDS011;59616;52.170;5.386;2022-07-04T00:33:28;5.25;;;1.60;;
70800;SDS011;59616;52.170;5.386;2022-07-04T00:35:55;5.95;;;1.40;;
70800;SDS011;59616;52.170;5.386;2022-07-04T00:38:21;6.25;;;1.50;;
70800;SDS011;59616;52.170;5.386;2022-07-04T00:40:48;6.00;;;1.70;;
70800;SDS011;59616;52.170;5.386;2022-07-04T00:43:22;5.43;;;1.60;;
70800;SDS011;59616;52.170;5.386;2022-07-04T00:45:53;7.60;;;1.77;;
70800;SDS011;59616;52.170;5.386;2022-07-04T00:48:19;5.97;;;1.85;;
70800;SDS011;59616;52.170;5.386;2022-07-04T00:50:47;6.47;;;1.40;;
70800;SDS011;59616;52.170;5.386;2022-07-04T00:53:14;5.03;;;1.70;;
70800;SDS011;59616;52.170;5.386;2022-07-04T00:55:42;5.32;;;1.83;;
70800;SDS011;59616;52.170;5.386;2022-07-04T00:58:10;7.32;;;1.83;;
70800;SDS011;59616;52.170;5.386;2022-07-04T01:00:39;7.00;;;1.63;;
70800;SDS011;59616;52.170;5.386;2022-07-04T01:03:06;6.18;;;1.55;;
70800;SDS011;59616;52.170;5.386;2022-07-04T01:05:33;5.55;;;2.10;;
70800;SDS011;59616;52.170;5.386;2022-07-04T01:08:00;7.93;;;1.83;;
70800;SDS011;59616;52.170;5.386;2022-07-04T01:10:27;3.55;;;1.65;;
70800;SDS011;59616;52.170;5.386;2022-07-04T01:12:54;4.55;;;1.80;;
70800;SDS011;59616;52.170;5.386;2022-07-04T01:15:21;8.50;;;1.95;;
70800;SDS011;59616;52.170;5.386;2022-07-04T01:17:48;8.55;;;2.03;;
70800;SDS011;59616;52.170;5.386;2022-07-04T01:20:15;6.30;;;2.13;;
70800;SDS011;59616;52.170;5.386;2022-07-04T01:22:42;7.80;;;2.08;;
70800;SDS011;59616;52.170;5.386;2022-07-04T01:25:10;8.45;;;2.63;;
70800;SDS011;59616;52.170;5.386;2022-07-04T01:27:36;6.60;;;2.20;;
70800;SDS011;59616;52.170;5.386;2022-07-04T01:30:03;6.60;;;2.10;;
70800;SDS011;59616;52.170;5.386;2022-07-04T01:32:30;7.40;;;2.42;;
70800;SDS011;59616;52.170;5.386;2022-07-04T01:34:57;9.68;;;2.80;;
70800;SDS011;59616;52.170;5.386;2022-07-04T01:37:24;5.97;;;2.03;;
70800;SDS011;59616;52.170;5.386;2022-07-04T01:39:51;9.00;;;2.72;;
70800;SDS011;59616;52.170;5.386;2022-07-04T01:42:17;6.70;;;2.38;;
70800;SDS011;59616;52.170;5.386;2022-07-04T01:44:44;8.60;;;2.70;;
70800;SDS011;59616;52.170;5.386;2022-07-04T01:47:11;9.75;;;2.35;;
70800;SDS011;59616;52.170;5.386;2022-07-04T01:49:38;8.02;;;2.67;;
70800;SDS011;59616;52.170;5.386;2022-07-04T01:52:05;10.00;;;2.80;;
70800;SDS011;59616;52.170;5.386;2022-07-04T01:54:31;7.53;;;2.65;;
70800;SDS011;59616;52.170;5.386;2022-07-04T01:56:58;8.48;;;2.90;;
70800;SDS011;59616;52.170;5.386;2022-07-04T01:59:25;10.00;;;2.92;;
70800;SDS011;59616;52.170;5.386;2022-07-04T02:02:12;10.65;;;2.33;;
70800;SDS011;59616;52.170;5.386;2022-07-04T02:04:38;9.13;;;2.92;;
70800;SDS011;59616;52.170;5.386;2022-07-04T02:07:05;7.05;;;2.53;;
70800;SDS011;59616;52.170;5.386;2022-07-04T02:09:32;8.45;;;2.35;;
70800;SDS011;59616;52.170;5.386;2022-07-04T02:11:59;11.32;;;2.88;;
70800;SDS011;59616;52.170;5.386;2022-07-04T02:14:45;5.88;;;2.42;;
70800;SDS011;59616;52.170;5.386;2022-07-04T02:17:12;13.68;;;3.03;;
70800;SDS011;59616;52.170;5.386;2022-07-04T02:19:38;10.20;;;3.15;;
70800;SDS011;59616;52.170;5.386;2022-07-04T02:22:05;8.25;;;2.33;;
70800;SDS011;59616;52.170;5.386;2022-07-04T02:24:32;8.55;;;2.78;;
70800;SDS011;59616;52.170;5.386;2022-07-04T02:26:59;7.72;;;2.25;;
70800;SDS011;59616;52.170;5.386;2022-07-04T02:29:26;8.45;;;2.50;;
70800;SDS011;59616;52.170;5.386;2022-07-04T02:31:52;8.88;;;2.28;;
70800;SDS011;59616;52.170;5.386;2022-07-04T02:34:19;8.40;;;2.63;;
70800;SDS011;59616;52.170;5.386;2022-07-04T02:36:46;10.55;;;2.83;;
70800;SDS011;59616;52.170;5.386;2022-07-04T02:39:13;8.98;;;2.60;;
70800;SDS011;59616;52.170;5.386;2022-07-04T02:41:40;8.40;;;2.72;;
70800;SDS011;59616;52.170;5.386;2022-07-04T02:44:07;8.40;;;2.55;;
70800;SDS011;59616;52.170;5.386;2022-07-04T02:46:34;10.55;;;2.75;;
70800;SDS011;59616;52.170;5.386;2022-07-04T02:49:01;9.73;;;2.83;;
70800;SDS011;59616;52.170;5.386;2022-07-04T02:51:28;7.97;;;2.63;;
70800;SDS011;59616;52.170;5.386;2022-07-04T02:53:55;7.70;;;2.85;;
70800;SDS011;59616;52.170;5.386;2022-07-04T02:56:22;8.52;;;2.90;;
70800;SDS011;59616;52.170;5.386;2022-07-04T02:58:49;7.72;;;2.80;;
70800;SDS011;59616;52.170;5.386;2022-07-04T03:01:16;7.25;;;2.58;;
70800;SDS011;59616;52.170;5.386;2022-07-04T03:03:44;6.97;;;2.90;;
70800;SDS011;59616;52.170;5.386;2022-07-04T03:06:12;9.30;;;2.60;;
70800;SDS011;59616;52.170;5.386;2022-07-04T03:08:39;7.80;;;2.35;;
70800;SDS011;59616;52.170;5.386;2022-07-04T03:11:06;9.90;;;3.05;;
70800;SDS011;59616;52.170;5.386;2022-07-04T03:13:33;8.13;;;2.85;;
70800;SDS011;59616;52.170;5.386;2022-07-04T03:16:00;7.95;;;2.80;;
70800;SDS011;59616;52.170;5.386;2022-07-04T03:18:26;9.15;;;2.80;;
70800;SDS011;59616;52.170;5.386;2022-07-04T03:20:53;7.63;;;2.42;;
70800;SDS011;59616;52.170;5.386;2022-07-04T03:23:20;7.45;;;2.67;;
70800;SDS011;59616;52.170;5.386;2022-07-04T03:25:47;8.27;;;2.67;;
70800;SDS011;59616;52.170;5.386;2022-07-04T03:28:14;7.60;;;2.63;;
70800;SDS011;59616;52.170;5.386;2022-07-04T03:30:40;9.73;;;2.90;;
70800;SDS011;59616;52.170;5.386;2022-07-04T03:33:08;7.82;;;2.78;;
70800;SDS011;59616;52.170;5.386;2022-07-04T03:35:35;8.65;;;2.80;;
70800;SDS011;59616;52.170;5.386;2022-07-04T03:38:01;15.48;;;3.35;;
70800;SDS011;59616;52.170;5.386;2022-07-04T03:40:28;8.50;;;2.50;;
70800;SDS011;59616;52.170;5.386;2022-07-04T03:42:57;7.25;;;2.55;;
70800;SDS011;59616;52.170;5.386;2022-07-04T03:45:24;9.27;;;2.75;;
70800;SDS011;59616;52.170;5.386;2022-07-04T03:47:51;7.65;;;2.72;;
70800;SDS011;59616;52.170;5.386;2022-07-04T03:50:18;6.72;;;2.70;;
70800;SDS011;59616;52.170;5.386;2022-07-04T03:52:45;7.32;;;2.67;;
70800;SDS011;59616;52.170;5.386;2022-07-04T03:55:11;7.93;;;2.65;;
70800;SDS011;59616;52.170;5.386;2022-07-04T03:57:38;7.57;;;2.90;;
70800;SDS011;59616;52.170;5.386;2022-07-04T04:00:05;7.63;;;2.85;;
70800;SDS011;59616;52.170;5.386;2022-07-04T04:02:37;8.25;;;2.88;;
70800;SDS011;59616;52.170;5.386;2022-07-04T04:05:12;12.10;;;3.47;;
70800;SDS011;59616;52.170;5.386;2022-07-04T04:07:55;8.57;;;3.40;;
70800;SDS011;59616;52.170;5.386;2022-07-04T04:10:24;9.15;;;3.15;;
70800;SDS011;59616;52.170;5.386;2022-07-04T04:12:52;11.35;;;3.88;;
70800;SDS011;59616;52.170;5.386;2022-07-04T04:15:19;9.27;;;3.50;;
70800;SDS011;59616;52.170;5.386;2022-07-04T04:17:46;12.30;;;3.50;;
70800;SDS011;59616;52.170;5.386;2022-07-04T04:20:12;8.63;;;3.70;;
70800;SDS011;59616;52.170;5.386;2022-07-04T04:22:39;8.75;;;3.45;;
70800;SDS011;59616;52.170;5.386;2022-07-04T04:25:06;10.02;;;3.67;;
70800;SDS011;59616;52.170;5.386;2022-07-04T04:27:33;9.45;;;3.70;;
70800;SDS011;59616;52.170;5.386;2022-07-04T04:30:00;11.70;;;4.28;;
70800;SDS011;59616;52.170;5.386;2022-07-04T04:32:27;9.82;;;4.03;;
70800;SDS011;59616;52.170;5.386;2022-07-04T04:34:54;10.45;;;4.38;;
70800;SDS011;59616;52.170;5.386;2022-07-04T04:37:20;11.02;;;4.05;;
70800;SDS011;59616;52.170;5.386;2022-07-04T04:39:47;11.32;;;4.25;;
70800;SDS011;59616;52.170;5.386;2022-07-04T04:42:14;12.65;;;4.20;;
70800;SDS011;59616;52.170;5.386;2022-07-04T04:44:40;11.82;;;4.22;;
70800;SDS011;59616;52.170;5.386;2022-07-04T04:47:07;10.50;;;4.00;;
70800;SDS011;59616;52.170;5.386;2022-07-04T04:49:34;10.35;;;4.40;;
70800;SDS011;59616;52.170;5.386;2022-07-04T04:52:01;13.45;;;4.90;;
70800;SDS011;59616;52.170;5.386;2022-07-04T04:54:28;10.80;;;4.55;;
70800;SDS011;59616;52.170;5.386;2022-07-04T04:56:55;13.00;;;4.10;;
70800;SDS011;59616;52.170;5.386;2022-07-04T04:59:21;10.82;;;3.88;;
70800;SDS011;59616;52.170;5.386;2022-07-04T05:01:48;11.00;;;4.20;;
70800;SDS011;59616;52.170;5.386;2022-07-04T05:04:15;10.38;;;4.15;;
70800;SDS011;59616;52.170;5.386;2022-07-04T05:06:43;10.70;;;3.83;;
70800;SDS011;59616;52.170;5.386;2022-07-04T05:09:10;12.27;;;4.13;;
70800;SDS011;59616;52.170;5.386;2022-07-04T05:11:36;12.07;;;4.15;;
70800;SDS011;59616;52.170;5.386;2022-07-04T05:14:03;12.38;;;4.13;;
70800;SDS011;59616;52.170;5.386;2022-07-04T05:16:30;12.38;;;4.35;;
70800;SDS011;59616;52.170;5.386;2022-07-04T05:18:57;12.13;;;4.03;;
70800;SDS011;59616;52.170;5.386;2022-07-04T05:21:24;12.52;;;4.32;;
70800;SDS011;59616;52.170;5.386;2022-07-04T05:23:52;13.95;;;4.10;;
70800;SDS011;59616;52.170;5.386;2022-07-04T05:26:19;13.68;;;3.80;;
70800;SDS011;59616;52.170;5.386;2022-07-04T05:28:46;9.57;;;3.72;;
70800;SDS011;59616;52.170;5.386;2022-07-04T05:31:12;12.70;;;3.90;;
70800;SDS011;59616;52.170;5.386;2022-07-04T05:33:39;11.25;;;3.90;;
70800;SDS011;59616;52.170;5.386;2022-07-04T05:36:06;13.68;;;4.38;;
70800;SDS011;59616;52.170;5.386;2022-07-04T05:38:33;12.40;;;3.50;;
70800;SDS011;59616;52.170;5.386;2022-07-04T05:41:00;11.70;;;3.85;;
70800;SDS011;59616;52.170;5.386;2022-07-04T05:43:28;13.48;;;3.97;;
70800;SDS011;59616;52.170;5.386;2022-07-04T05:45:54;10.80;;;3.30;;
70800;SDS011;59616;52.170;5.386;2022-07-04T05:48:21;10.93;;;3.38;;
70800;SDS011;59616;52.170;5.386;2022-07-04T05:50:48;10.30;;;3.30;;
70800;SDS011;59616;52.170;5.386;2022-07-04T05:53:14;10.70;;;3.20;;
70800;SDS011;59616;52.170;5.386;2022-07-04T05:55:41;11.38;;;3.03;;
70800;SDS011;59616;52.170;5.386;2022-07-04T05:58:08;11.35;;;3.50;;
70800;SDS011;59616;52.170;5.386;2022-07-04T06:00:35;11.65;;;3.60;;
70800;SDS011;59616;52.170;5.386;2022-07-04T06:03:01;14.38;;;4.78;;
70800;SDS011;59616;52.170;5.386;2022-07-04T06:05:29;10.45;;;3.63;;
70800;SDS011;59616;52.170;5.386;2022-07-04T06:07:55;14.07;;;4.18;;
70800;SDS011;59616;52.170;5.386;2022-07-04T06:10:22;12.73;;;3.40;;
70800;SDS011;59616;52.170;5.386;2022-07-04T06:12:49;14.48;;;4.15;;
70800;SDS011;59616;52.170;5.386;2022-07-04T06:15:16;13.60;;;4.10;;
70800;SDS011;59616;52.170;5.386;2022-07-04T06:17:42;11.27;;;3.63;;
70800;SDS011;59616;52.170;5.386;2022-07-04T06:20:09;8.95;;;3.50;;
70800;SDS011;59616;52.170;5.386;2022-07-04T06:22:47;12.30;;;3.58;;
70800;SDS011;59616;52.170;5.386;2022-07-04T06:25:16;12.13;;;3.95;;
70800;SDS011;59616;52.170;5.386;2022-07-04T06:27:44;11.18;;;3.50;;
70800;SDS011;59616;52.170;5.386;2022-07-04T06:30:12;10.40;;;3.50;;
70800;SDS011;59616;52.170;5.386;2022-07-04T06:32:43;10.75;;;3.90;;
70800;SDS011;59616;52.170;5.386;2022-07-04T06:35:17;12.38;;;3.72;;
70800;SDS011;59616;52.170;5.386;2022-07-04T06:38:04;9.02;;;3.50;;
70800;SDS011;59616;52.170;5.386;2022-07-04T06:40:31;11.02;;;3.75;;
70800;SDS011;59616;52.170;5.386;2022-07-04T06:42:58;8.95;;;3.60;;
70800;SDS011;59616;52.170;5.386;2022-07-04T06:45:24;12.02;;;4.07;;
70800;SDS011;59616;52.170;5.386;2022-07-04T06:47:51;12.60;;;3.92;;
70800;SDS011;59616;52.170;5.386;2022-07-04T06:50:18;8.93;;;3.30;;
70800;SDS011;59616;52.170;5.386;2022-07-04T06:53:05;13.07;;;3.90;;
70800;SDS011;59616;52.170;5.386;2022-07-04T06:55:33;12.98;;;4.43;;
70800;SDS011;59616;52.170;5.386;2022-07-04T06:58:00;10.07;;;3.50;;
70800;SDS011;59616;52.170;5.386;2022-07-04T07:00:27;19.38;;;4.10;;
70800;SDS011;59616;52.170;5.386;2022-07-04T07:02:58;10.35;;;3.67;;
70800;SDS011;59616;52.170;5.386;2022-07-04T07:05:26;10.32;;;3.47;;
70800;SDS011;59616;52.170;5.386;2022-07-04T07:08:14;11.18;;;3.67;;
70800;SDS011;59616;52.170;5.386;2022-07-04T07:10:40;11.15;;;3.75;;
70800;SDS011;59616;52.170;5.386;2022-07-04T07:13:07;9.63;;;3.78;;
70800;SDS011;59616;52.170;5.386;2022-07-04T07:15:34;8.63;;;3.33;;
70800;SDS011;59616;52.170;5.386;2022-07-04T07:18:04;9.00;;;3.40;;
70800;SDS011;59616;52.170;5.386;2022-07-04T07:20:31;13.65;;;3.35;;
70800;SDS011;59616;52.170;5.386;2022-07-04T07:23:01;13.55;;;3.97;;
70800;SDS011;59616;52.170;5.386;2022-07-04T07:25:29;10.95;;;3.35;;
70800;SDS011;59616;52.170;5.386;2022-07-04T07:27:56;10.45;;;3.17;;
70800;SDS011;59616;52.170;5.386;2022-07-04T07:30:24;8.00;;;3.08;;
70800;SDS011;59616;52.170;5.386;2022-07-04T07:32:50;6.30;;;2.30;;
70800;SDS011;59616;52.170;5.386;2022-07-04T07:35:17;8.52;;;2.10;;
70800;SDS011;59616;52.170;5.386;2022-07-04T07:37:44;9.95;;;1.98;;
70800;SDS011;59616;52.170;5.386;2022-07-04T07:40:10;5.63;;;1.80;;
70800;SDS011;59616;52.170;5.386;2022-07-04T07:42:37;7.43;;;2.08;;
70800;SDS011;59616;52.170;5.386;2022-07-04T07:45:04;9.70;;;2.33;;
70800;SDS011;59616;52.170;5.386;2022-07-04T07:47:31;8.20;;;2.25;;
70800;SDS011;59616;52.170;5.386;2022-07-04T07:49:58;9.13;;;2.05;;
70800;SDS011;59616;52.170;5.386;2022-07-04T07:52:25;8.90;;;2.13;;
70800;SDS011;59616;52.170;5.386;2022-07-04T07:54:53;7.10;;;1.70;;
70800;SDS011;59616;52.170;5.386;2022-07-04T07:57:28;6.60;;;1.90;;
70800;SDS011;59616;52.170;5.386;2022-07-04T07:59:55;7.80;;;1.92;;
70800;SDS011;59616;52.170;5.386;2022-07-04T08:02:23;6.85;;;1.77;;
70800;SDS011;59616;52.170;5.386;2022-07-04T08:05:10;6.70;;;1.70;;
70800;SDS011;59616;52.170;5.386;2022-07-04T08:07:38;6.75;;;1.67;;
70800;SDS011;59616;52.170;5.386;2022-07-04T08:10:05;6.97;;;1.60;;
70800;SDS011;59616;52.170;5.386;2022-07-04T08:12:33;8.85;;;2.05;;
70800;SDS011;59616;52.170;5.386;2022-07-04T08:15:00;11.70;;;2.00;;
70800;SDS011;59616;52.170;5.386;2022-07-04T08:19:59;7.65;;;1.60;;
70800;SDS011;59616;52.170;5.386;2022-07-04T08:22:26;5.15;;;1.80;;
70800;SDS011;59616;52.170;5.386;2022-07-04T08:24:53;5.65;;;1.90;;
70800;SDS011;59616;52.170;5.386;2022-07-04T08:27:20;5.13;;;1.58;;
70800;SDS011;59616;52.170;5.386;2022-07-04T08:29:57;8.55;;;1.80;;
70800;SDS011;59616;52.170;5.386;2022-07-04T08:32:23;5.90;;;1.60;;
70800;SDS011;59616;52.170;5.386;2022-07-04T08:34:50;5.75;;;1.50;;
70800;SDS011;59616;52.170;5.386;2022-07-04T08:37:17;7.15;;;1.80;;
70800;SDS011;59616;52.170;5.386;2022-07-04T08:39:44;6.00;;;1.95;;
70800;SDS011;59616;52.170;5.386;2022-07-04T08:42:16;5.40;;;1.40;;
70800;SDS011;59616;52.170;5.386;2022-07-04T08:44:47;6.55;;;1.50;;
70800;SDS011;59616;52.170;5.386;2022-07-04T08:47:19;4.28;;;1.58;;
70800;SDS011;59616;52.170;5.386;2022-07-04T08:49:52;5.05;;;1.58;;
70800;SDS011;59616;52.170;5.386;2022-07-04T08:52:41;5.93;;;1.50;;
70800;SDS011;59616;52.170;5.386;2022-07-04T08:55:11;5.93;;;1.50;;
70800;SDS011;59616;52.170;5.386;2022-07-04T08:57:57;5.68;;;1.45;;
70800;SDS011;59616;52.170;5.386;2022-07-04T09:00:43;3.53;;;1.48;;
70800;SDS011;59616;52.170;5.386;2022-07-04T09:03:10;5.75;;;1.60;;
70800;SDS011;59616;52.170;5.386;2022-07-04T09:05:37;4.38;;;1.40;;
70800;SDS011;59616;52.170;5.386;2022-07-04T09:08:04;4.80;;;1.42;;
70800;SDS011;59616;52.170;5.386;2022-07-04T09:10:31;4.82;;;1.48;;
70800;SDS011;59616;52.170;5.386;2022-07-04T09:13:00;4.70;;;1.50;;
70800;SDS011;59616;52.170;5.386;2022-07-04T09:15:39;4.82;;;1.35;;
70800;SDS011;59616;52.170;5.386;2022-07-04T09:18:08;4.85;;;1.30;;
70800;SDS011;59616;52.170;5.386;2022-07-04T09:20:46;3.47;;;1.30;;
70800;SDS011;59616;52.170;5.386;2022-07-04T09:23:16;4.75;;;1.40;;
70800;SDS011;59616;52.170;5.386;2022-07-04T09:25:45;2.88;;;1.20;;
70800;SDS011;59616;52.170;5.386;2022-07-04T09:28:12;5.03;;;1.05;;
70800;SDS011;59616;52.170;5.386;2022-07-04T09:30:52;5.20;;;1.27;;
70800;SDS011;59616;52.170;5.386;2022-07-04T09:33:19;3.42;;;1.33;;
70800;SDS011;59616;52.170;5.386;2022-07-04T09:35:47;2.88;;;1.05;;
70800;SDS011;59616;52.170;5.386;2022-07-04T09:38:21;5.00;;;1.35;;
70800;SDS011;59616;52.170;5.386;2022-07-04T09:40:51;3.05;;;1.20;;
70800;SDS011;59616;52.170;5.386;2022-07-04T09:43:37;3.15;;;1.20;;
70800;SDS011;59616;52.170;5.386;2022-07-04T09:46:25;5.15;;;1.30;;
70800;SDS011;59616;52.170;5.386;2022-07-04T09:48:52;3.80;;;1.40;;
70800;SDS011;59616;52.170;5.386;2022-07-04T09:51:41;3.47;;;1.23;;
70800;SDS011;59616;52.170;5.386;2022-07-04T09:54:25;4.07;;;1.40;;
70800;SDS011;59616;52.170;5.386;2022-07-04T09:57:01;2.10;;;1.10;;
70800;SDS011;59616;52.170;5.386;2022-07-04T09:59:29;5.00;;;1.33;;
70800;SDS011;59616;52.170;5.386;2022-07-04T10:02:06;4.72;;;1.38;;
70800;SDS011;59616;52.170;5.386;2022-07-04T10:04:48;3.35;;;1.20;;
70800;SDS011;59616;52.170;5.386;2022-07-04T10:10:26;4.57;;;1.50;;
70800;SDS011;59616;52.170;5.386;2022-07-04T10:12:55;3.95;;;1.30;;
70800;SDS011;59616;52.170;5.386;2022-07-04T10:15:27;3.33;;;1.48;;
70800;SDS011;59616;52.170;5.386;2022-07-04T10:17:54;4.45;;;1.25;;
70800;SDS011;59616;52.170;5.386;2022-07-04T10:20:21;3.20;;;1.40;;
70800;SDS011;59616;52.170;5.386;2022-07-04T10:22:48;4.20;;;1.30;;
70800;SDS011;59616;52.170;5.386;2022-07-04T10:25:15;4.43;;;1.40;;
70800;SDS011;59616;52.170;5.386;2022-07-04T10:27:42;3.92;;;1.20;;
70800;SDS011;59616;52.170;5.386;2022-07-04T10:30:10;4.00;;;1.50;;
70800;SDS011;59616;52.170;5.386;2022-07-04T10:32:39;4.38;;;1.50;;
70800;SDS011;59616;52.170;5.386;2022-07-04T10:35:11;3.35;;;1.30;;
70800;SDS011;59616;52.170;5.386;2022-07-04T10:37:58;5.13;;;1.33;;
70800;SDS011;59616;52.170;5.386;2022-07-04T10:40:40;3.15;;;1.40;;
70800;SDS011;59616;52.170;5.386;2022-07-04T10:48:49;4.40;;;1.40;;
70800;SDS011;59616;52.170;5.386;2022-07-04T10:51:22;5.15;;;1.60;;
70800;SDS011;59616;52.170;5.386;2022-07-04T10:54:02;3.38;;;1.20;;
70800;SDS011;59616;52.170;5.386;2022-07-04T10:56:43;2.55;;;1.10;;
70800;SDS011;59616;52.170;5.386;2022-07-04T10:59:11;1.65;;;0.93;;
70800;SDS011;59616;52.170;5.386;2022-07-04T11:01:48;2.75;;;1.10;;
70800;SDS011;59616;52.170;5.386;2022-07-04T11:04:53;3.13;;;1.15;;
70800;SDS011;59616;52.170;5.386;2022-07-04T11:18:19;4.22;;;1.20;;
70800;SDS011;59616;52.170;5.386;2022-07-04T11:20:48;3.85;;;1.13;;
70800;SDS011;59616;52.170;5.386;2022-07-04T11:23:16;4.20;;;1.17;;
70800;SDS011;59616;52.170;5.386;2022-07-04T11:25:46;5.97;;;1.30;;
70800;SDS011;59616;52.170;5.386;2022-07-04T11:28:23;3.00;;;1.40;;
70800;SDS011;59616;52.170;5.386;2022-07-04T11:31:09;3.17;;;1.10;;
70800;SDS011;59616;52.170;5.386;2022-07-04T11:33:37;1.80;;;1.13;;
70800;SDS011;59616;52.170;5.386;2022-07-04T11:36:09;4.97;;;1.40;;
70800;SDS011;59616;52.170;5.386;2022-07-04T11:38:43;3.55;;;1.27;;
70800;SDS011;59616;52.170;5.386;2022-07-04T11:41:31;4.10;;;1.30;;
70800;SDS011;59616;52.170;5.386;2022-07-04T11:44:22;3.33;;;1.30;;
70800;SDS011;59616;52.170;5.386;2022-07-04T11:47:10;2.88;;;1.10;;
70800;SDS011;59616;52.170;5.386;2022-07-04T11:52:14;3.42;;;1.40;;
70800;SDS011;59616;52.170;5.386;2022-07-04T11:55:01;3.40;;;1.20;;
70800;SDS011;59616;52.170;5.386;2022-07-04T11:57:32;3.38;;;1.00;;
70800;SDS011;59616;52.170;5.386;2022-07-04T12:00:04;4.30;;;1.13;;
70800;SDS011;59616;52.170;5.386;2022-07-04T12:02:39;2.85;;;1.20;;
70800;SDS011;59616;52.170;5.386;2022-07-04T12:05:08;2.92;;;1.00;;
70800;SDS011;59616;52.170;5.386;2022-07-04T12:07:39;4.47;;;1.17;;
70800;SDS011;59616;52.170;5.386;2022-07-04T12:10:14;2.00;;;1.02;;
70800;SDS011;59616;52.170;5.386;2022-07-04T12:12:56;5.55;;;1.25;;
70800;SDS011;59616;52.170;5.386;2022-07-04T12:15:24;2.75;;;1.10;;
70800;SDS011;59616;52.170;5.386;2022-07-04T12:17:52;3.22;;;1.35;;
70800;SDS011;59616;52.170;5.386;2022-07-04T12:20:24;4.90;;;1.30;;
70800;SDS011;59616;52.170;5.386;2022-07-04T12:22:52;1.75;;;1.13;;
70800;SDS011;59616;52.170;5.386;2022-07-04T12:27:59;6.70;;;1.13;;
70800;SDS011;59616;52.170;5.386;2022-07-04T12:30:31;5.45;;;1.27;;
70800;SDS011;59616;52.170;5.386;2022-07-04T12:33:03;3.42;;;1.10;;
70800;SDS011;59616;52.170;5.386;2022-07-04T12:35:32;5.85;;;1.27;;
70800;SDS011;59616;52.170;5.386;2022-07-04T12:38:06;7.55;;;1.40;;
70800;SDS011;59616;52.170;5.386;2022-07-04T12:40:51;5.28;;;1.20;;
70800;SDS011;59616;52.170;5.386;2022-07-04T12:43:21;3.05;;;1.10;;
70800;SDS011;59616;52.170;5.386;2022-07-04T12:45:50;4.32;;;1.20;;
70800;SDS011;59616;52.170;5.386;2022-07-04T12:50:55;3.75;;;1.05;;
70800;SDS011;59616;52.170;5.386;2022-07-04T12:53:37;4.85;;;1.38;;
70800;SDS011;59616;52.170;5.386;2022-07-04T12:56:05;4.05;;;1.10;;
70800;SDS011;59616;52.170;5.386;2022-07-04T12:58:32;3.13;;;1.10;;
70800;SDS011;59616;52.170;5.386;2022-07-04T13:00:59;4.10;;;1.77;;
70800;SDS011;59616;52.170;5.386;2022-07-04T13:03:26;3.55;;;1.42;;
70800;SDS011;59616;52.170;5.386;2022-07-04T13:05:53;3.55;;;1.38;;
70800;SDS011;59616;52.170;5.386;2022-07-04T13:08:23;3.58;;;1.35;;
70800;SDS011;59616;52.170;5.386;2022-07-04T13:10:49;3.60;;;1.17;;
70800;SDS011;59616;52.170;5.386;2022-07-04T13:13:37;2.08;;;1.10;;
70800;SDS011;59616;52.170;5.386;2022-07-04T13:16:03;3.95;;;1.30;;
70800;SDS011;59616;52.170;5.386;2022-07-04T13:18:30;3.88;;;1.10;;
70800;SDS011;59616;52.170;5.386;2022-07-04T13:20:57;2.33;;;1.10;;
70800;SDS011;59616;52.170;5.386;2022-07-04T13:23:24;4.78;;;1.20;;
70800;SDS011;59616;52.170;5.386;2022-07-04T13:25:52;4.10;;;1.10;;
70800;SDS011;59616;52.170;5.386;2022-07-04T13:28:19;2.63;;;1.05;;
70800;SDS011;59616;52.170;5.386;2022-07-04T13:30:46;2.33;;;1.20;;
70800;SDS011;59616;52.170;5.386;2022-07-04T13:33:13;4.93;;;1.40;;
70800;SDS011;59616;52.170;5.386;2022-07-04T13:35:39;2.30;;;0.90;;
70800;SDS011;59616;52.170;5.386;2022-07-04T13:38:10;5.18;;;1.17;;
70800;SDS011;59616;52.170;5.386;2022-07-04T13:40:37;3.88;;;1.30;;
70800;SDS011;59616;52.170;5.386;2022-07-04T13:43:03;2.53;;;1.00;;
70800;SDS011;59616;52.170;5.386;2022-07-04T13:45:37;2.90;;;1.25;;
70800;SDS011;59616;52.170;5.386;2022-07-04T13:48:06;2.20;;;0.90;;
70800;SDS011;59616;52.170;5.386;2022-07-04T13:50:33;3.20;;;1.15;;
70800;SDS011;59616;52.170;5.386;2022-07-04T13:53:03;2.70;;;1.10;;
70800;SDS011;59616;52.170;5.386;2022-07-04T13:55:31;2.03;;;1.10;;
70800;SDS011;59616;52.170;5.386;2022-07-04T13:57:58;2.42;;;1.20;;
70800;SDS011;59616;52.170;5.386;2022-07-04T14:00:25;1.52;;;1.08;;
70800;SDS011;59616;52.170;5.386;2022-07-04T14:02:51;3.15;;;1.10;;
70800;SDS011;59616;52.170;5.386;2022-07-04T14:05:18;3.13;;;1.20;;
70800;SDS011;59616;52.170;5.386;2022-07-04T14:07:45;2.80;;;1.20;;
70800;SDS011;59616;52.170;5.386;2022-07-04T14:10:12;3.92;;;1.00;;
70800;SDS011;59616;52.170;5.386;2022-07-04T14:12:39;3.38;;;1.10;;
70800;SDS011;59616;52.170;5.386;2022-07-04T14:15:06;5.32;;;1.23;;
70800;SDS011;59616;52.170;5.386;2022-07-04T14:17:33;2.40;;;1.20;;
70800;SDS011;59616;52.170;5.386;2022-07-04T14:20:05;3.42;;;1.10;;
70800;SDS011;59616;52.170;5.386;2022-07-04T14:22:34;6.07;;;1.20;;
70800;SDS011;59616;52.170;5.386;2022-07-04T14:25:02;4.32;;;1.20;;
70800;SDS011;59616;52.170;5.386;2022-07-04T14:27:29;3.13;;;1.10;;
70800;SDS011;59616;52.170;5.386;2022-07-04T14:29:56;4.38;;;1.30;;
70800;SDS011;59616;52.170;5.386;2022-07-04T14:32:22;3.15;;;1.20;;
70800;SDS011;59616;52.170;5.386;2022-07-04T14:34:49;3.50;;;1.30;;
70800;SDS011;59616;52.170;5.386;2022-07-04T14:37:16;3.17;;;1.15;;
70800;SDS011;59616;52.170;5.386;2022-07-04T14:39:43;5.88;;;1.10;;
70800;SDS011;59616;52.170;5.386;2022-07-04T14:42:10;2.60;;;1.20;;
70800;SDS011;59616;52.170;5.386;2022-07-04T14:44:36;2.67;;;1.27;;
70800;SDS011;59616;52.170;5.386;2022-07-04T14:47:04;3.08;;;1.23;;
70800;SDS011;59616;52.170;5.386;2022-07-04T14:49:37;3.55;;;1.23;;
70800;SDS011;59616;52.170;5.386;2022-07-04T14:52:04;3.10;;;1.30;;
70800;SDS011;59616;52.170;5.386;2022-07-04T14:54:31;5.40;;;1.48;;
70800;SDS011;59616;52.170;5.386;2022-07-04T14:56:58;2.55;;;1.20;;
70800;SDS011;59616;52.170;5.386;2022-07-04T14:59:24;3.28;;;1.20;;
70800;SDS011;59616;52.170;5.386;2022-07-04T15:01:51;5.18;;;1.25;;
70800;SDS011;59616;52.170;5.386;2022-07-04T15:04:19;4.35;;;1.20;;
70800;SDS011;59616;52.170;5.386;2022-07-04T15:06:46;4.22;;;1.15;;
70800;SDS011;59616;52.170;5.386;2022-07-04T15:09:14;4.30;;;1.52;;
70800;SDS011;59616;52.170;5.386;2022-07-04T15:11:41;3.83;;;1.08;;
70800;SDS011;59616;52.170;5.386;2022-07-04T15:14:07;2.63;;;1.10;;
70800;SDS011;59616;52.170;5.386;2022-07-04T15:16:34;3.88;;;1.40;;
70800;SDS011;59616;52.170;5.386;2022-07-04T15:19:01;4.40;;;1.30;;
70800;SDS011;59616;52.170;5.386;2022-07-04T15:21:28;4.70;;;1.20;;
70800;SDS011;59616;52.170;5.386;2022-07-04T15:24:14;3.15;;;1.17;;
70800;SDS011;59616;52.170;5.386;2022-07-04T15:26:42;2.90;;;1.20;;
70800;SDS011;59616;52.170;5.386;2022-07-04T15:29:17;3.83;;;1.30;;